createdAt,value
2022-08-05T00:00:23.182Z,98074.84
2022-08-05T00:02:52.477Z,98078.00
2022-08-05T00:06:02.583Z,98073.34
2022-08-05T00:08:32.769Z,98085.00
2022-08-05T00:11:00.915Z,98076.56
2022-08-05T00:13:39.620Z,98076.34
2022-08-05T00:16:14.505Z,98070.66
2022-08-05T00:18:48.223Z,98068.28
2022-08-05T00:21:17.576Z,98066.22
2022-08-05T00:23:53.649Z,98064.50
2022-08-05T00:26:35.491Z,98067.47
2022-08-05T00:29:02.721Z,98065.78
2022-08-05T00:31:54.085Z,98065.78
2022-08-05T00:34:56.204Z,98071.06
2022-08-05T00:37:11.128Z,98069.59
2022-08-05T00:39:44.572Z,98066.84
2022-08-05T00:42:38.523Z,98070.88
2022-08-05T00:45:11.625Z,98068.75
2022-08-05T00:47:57.229Z,98064.53
2022-08-05T00:50:29.362Z,98069.59
2022-08-05T00:52:56.591Z,98077.41
2022-08-05T00:55:34.172Z,98081.41
2022-08-05T00:58:12.014Z,98077.22
2022-08-05T01:00:40.468Z,98066.63
2022-08-05T01:03:15.000Z,98081.44
2022-08-05T01:05:54.797Z,98074.03
2022-08-05T01:08:30.676Z,98074.25
2022-08-05T01:11:22.451Z,98068.34
2022-08-05T01:14:02.779Z,98073.41
2022-08-05T01:16:44.225Z,98068.13
2022-08-05T01:19:56.854Z,98082.91
2022-08-05T01:22:41.873Z,98077.00
2022-08-05T01:25:40.959Z,98074.03
2022-08-05T01:28:23.891Z,98073.81
2022-08-05T01:30:57.243Z,98070.84
2022-08-05T01:33:35.460Z,98079.09
2022-08-05T01:36:13.061Z,98079.50
2022-08-05T01:38:48.487Z,98071.22
2022-08-05T01:41:22.072Z,98085.38
2022-08-05T01:43:51.112Z,98080.50
2022-08-05T01:46:42.849Z,98081.56
2022-08-05T01:49:23.789Z,98081.31
2022-08-05T01:52:01.643Z,98077.34
2022-08-05T01:54:58.431Z,98081.75
2022-08-05T01:58:12.867Z,98085.56
2022-08-05T02:00:19.166Z,98082.59
2022-08-05T02:02:55.423Z,98073.94
2022-08-05T02:05:29.220Z,98070.38
2022-08-05T02:08:01.435Z,98075.63
2022-08-05T02:10:37.937Z,98072.03
2022-08-05T02:13:28.736Z,98080.00
2022-08-05T02:16:24.255Z,98079.16
2022-08-05T02:19:47.283Z,98080.38
2022-08-05T02:22:26.535Z,98081.19
2022-08-05T02:25:12.712Z,98074.22
2022-08-05T02:27:59.319Z,98079.06
2022-08-05T02:30:34.623Z,98074.00
2022-08-05T02:33:03.559Z,98073.56
2022-08-05T02:35:37.728Z,98068.72
2022-08-05T02:38:19.540Z,98072.28
2022-08-05T02:40:54.477Z,98086.88
2022-08-05T02:43:24.814Z,98082.22
2022-08-05T02:45:53.992Z,98077.97
2022-08-05T02:48:29.516Z,98084.13
2022-08-05T02:51:06.730Z,98079.69
2022-08-05T02:53:40.470Z,98091.47
2022-08-05T02:56:16.044Z,98082.81
2022-08-05T02:58:51.209Z,98083.66
2022-08-05T03:01:25.511Z,98083.78
2022-08-05T03:04:02.733Z,98081.22
2022-08-05T03:06:54.923Z,98074.44
2022-08-05T03:09:27.213Z,98077.81
2022-08-05T03:12:05.920Z,98073.41
2022-08-05T03:14:33.154Z,98072.13
2022-08-05T03:17:00.849Z,98085.53
2022-08-05T03:19:33.793Z,98084.19
2022-08-05T03:22:01.573Z,98076.16
2022-08-05T03:24:30.958Z,98069.66
2022-08-05T03:26:59.599Z,98076.63
2022-08-05T03:29:45.551Z,98080.00
2022-08-05T03:32:15.888Z,98075.72
2022-08-05T03:34:50.560Z,98076.56
2022-08-05T03:37:22.795Z,98079.31
2022-08-05T03:39:58.927Z,98078.47
2022-08-05T03:42:29.062Z,98079.09
2022-08-05T03:45:01.498Z,98081.44
2022-08-05T03:47:30.318Z,98078.72
2022-08-05T03:49:58.196Z,98081.06
2022-08-05T03:52:37.708Z,98078.75
2022-08-05T03:56:05.119Z,98082.34
2022-08-05T03:58:27.197Z,98086.34
2022-08-05T04:01:00.361Z,98085.78
2022-08-05T04:03:29.528Z,98087.88
2022-08-05T04:05:59.164Z,98086.47
2022-08-05T04:08:36.820Z,98091.13
2022-08-05T04:11:08.687Z,98093.25
2022-08-05T04:13:51.222Z,98101.53
2022-08-05T04:16:25.359Z,98094.59
2022-08-05T04:19:00.324Z,98098.63
2022-08-05T04:22:09.205Z,98088.31
2022-08-05T04:24:19.653Z,98094.66
2022-08-05T04:26:50.480Z,98082.50
2022-08-05T04:29:17.674Z,98081.47
2022-08-05T04:31:45.230Z,98086.34
2022-08-05T04:34:24.484Z,98081.47
2022-08-05T04:37:03.123Z,98085.09
2022-08-05T04:39:31.293Z,98085.09
2022-08-05T04:42:00.277Z,98084.22
2022-08-05T04:44:30.929Z,98088.88
2022-08-05T04:46:59.544Z,98078.78
2022-08-05T04:49:38.619Z,98089.34
2022-08-05T04:52:15.893Z,98086.81
2022-08-05T04:54:42.910Z,98091.09
2022-08-05T04:57:10.593Z,98085.22
2022-08-05T04:59:38.994Z,98084.38
2022-08-05T05:02:41.330Z,98094.94
2022-08-05T05:05:02.365Z,98091.16
2022-08-05T05:07:32.291Z,98090.50
2022-08-05T05:10:02.314Z,98091.56
2022-08-05T05:12:30.296Z,98083.53
2022-08-05T05:14:57.419Z,98086.28
2022-08-05T05:17:55.547Z,98082.69
2022-08-05T05:20:14.047Z,98074.44
2022-08-05T05:22:43.941Z,98080.75
2022-08-05T05:25:16.374Z,98075.66
2022-08-05T05:27:53.795Z,98076.44
2022-08-05T05:30:30.737Z,98070.72
2022-08-05T05:33:16.302Z,98067.03
2022-08-05T05:35:48.340Z,98069.53
2022-08-05T05:38:22.715Z,98077.31
2022-08-05T05:40:56.905Z,98075.78
2022-08-05T05:43:56.420Z,98077.59
2022-08-05T05:46:16.325Z,98066.56
2022-08-05T05:48:48.138Z,98074.94
2022-08-05T05:51:28.062Z,98074.25
2022-08-05T05:53:59.747Z,98074.69
2022-08-05T05:56:34.447Z,98078.09
2022-08-05T05:59:06.018Z,98078.25
2022-08-05T06:01:39.763Z,98084.56
2022-08-05T06:04:12.966Z,98086.63
2022-08-05T06:06:46.603Z,98078.22
2022-08-05T06:09:25.899Z,98087.00
2022-08-05T06:12:04.030Z,98079.84
2022-08-05T06:14:32.386Z,98084.19
2022-08-05T06:17:02.210Z,98080.50
2022-08-05T06:19:57.220Z,98082.75
2022-08-05T06:22:29.829Z,98081.97
2022-08-05T06:24:58.008Z,98089.22
2022-08-05T06:28:11.314Z,98073.44
2022-08-05T06:30:19.889Z,98079.25
2022-08-05T06:32:50.815Z,98075.34
2022-08-05T06:36:03.963Z,98074.56
2022-08-05T06:38:10.075Z,98072.66
2022-08-05T06:40:44.621Z,98077.38
2022-08-05T06:43:58.763Z,98076.59
2022-08-05T06:46:03.723Z,98080.09
2022-08-05T06:48:53.518Z,98091.34
2022-08-05T06:51:30.084Z,98082.25
2022-08-05T06:54:04.086Z,98083.22
2022-08-05T06:56:34.484Z,98073.28
2022-08-05T06:59:08.473Z,98079.53
2022-08-05T07:01:41.666Z,98071.66
2022-08-05T07:04:10.511Z,98077.06
2022-08-05T07:06:37.784Z,98077.81
2022-08-05T07:09:05.981Z,98080.91
2022-08-05T07:11:37.104Z,98076.38
2022-08-05T07:14:29.972Z,98067.38
2022-08-05T07:17:59.877Z,98075.63
2022-08-05T07:22:42.018Z,98064.88
2022-08-05T07:25:22.481Z,98071.69
2022-08-05T07:27:58.853Z,98061.81
2022-08-05T07:30:38.486Z,98066.69
2022-08-05T07:33:10.562Z,98060.91
2022-08-05T07:36:04.715Z,98070.16
2022-08-05T07:38:34.803Z,98071.19
2022-08-05T07:42:07.172Z,98069.72
2022-08-05T07:43:56.177Z,98068.78
2022-08-05T07:46:26.073Z,98061.28
2022-08-05T07:49:02.503Z,98062.63
2022-08-05T07:51:48.663Z,98055.81
2022-08-05T07:54:26.237Z,98054.91
2022-08-05T07:57:13.740Z,98060.94
2022-08-05T07:59:42.198Z,98059.59
2022-08-05T08:02:15.758Z,98054.53
2022-08-05T08:04:46.227Z,98061.44
2022-08-05T08:07:14.972Z,98039.75
2022-08-05T08:09:43.776Z,98054.19
2022-08-05T08:12:33.476Z,98049.81
2022-08-05T08:15:02.627Z,98046.78
2022-08-05T08:17:31.656Z,98044.72
2022-08-05T08:20:23.479Z,98041.75
2022-08-05T08:22:56.870Z,98042.25
2022-08-05T08:25:26.800Z,98041.84
2022-08-05T08:28:18.752Z,98052.63
2022-08-05T08:31:00.739Z,98047.22
2022-08-05T08:33:27.974Z,98044.56
2022-08-05T08:36:18.407Z,98036.97
2022-08-05T08:38:42.965Z,98041.47
2022-08-05T08:41:26.128Z,98042.34
2022-08-05T08:45:18.519Z,98045.72
2022-08-05T08:47:21.726Z,98035.38
2022-08-05T08:50:07.615Z,98046.47
2022-08-05T08:52:47.359Z,98035.75
2022-08-05T08:55:31.941Z,98038.19
2022-08-05T08:58:09.293Z,98039.78
2022-08-05T09:00:36.964Z,98028.88
2022-08-05T09:03:08.130Z,98022.59
2022-08-05T09:05:38.951Z,98021.94
2022-08-05T09:08:27.289Z,98008.78
2022-08-05T09:10:59.013Z,98004.97
2022-08-05T09:13:31.512Z,97999.25
2022-08-05T09:16:00.251Z,97994.56
2022-08-05T09:18:28.225Z,97997.44
2022-08-05T09:20:57.576Z,97993.03
2022-08-05T09:23:28.805Z,98001.16
2022-08-05T09:26:25.151Z,98000.31
2022-08-05T09:29:05.206Z,97991.38
2022-08-05T09:32:41.969Z,97987.78
2022-08-05T09:34:21.032Z,97981.63
2022-08-05T09:36:55.885Z,97980.00
2022-08-05T09:39:41.518Z,97976.66
2022-08-05T09:42:22.991Z,97985.84
2022-08-05T09:44:56.461Z,97972.97
2022-08-05T09:47:36.501Z,97969.03
2022-08-05T09:50:37.427Z,97964.03
2022-08-05T09:53:06.339Z,97961.22
2022-08-05T09:55:56.451Z,97955.59
2022-08-05T09:58:25.233Z,97957.78
2022-08-05T10:01:01.984Z,97953.00
2022-08-05T10:03:58.500Z,97950.78
2022-08-05T10:06:28.384Z,97942.97
2022-08-05T10:08:57.062Z,97944.94
2022-08-05T10:11:24.375Z,97948.25
2022-08-05T10:13:59.086Z,97943.25
2022-08-05T10:16:41.712Z,97934.56
2022-08-05T10:19:23.852Z,97939.66
2022-08-05T10:21:59.747Z,97939.56
2022-08-05T10:24:28.710Z,97937.63
2022-08-05T10:27:00.185Z,97934.19
2022-08-05T10:30:06.608Z,97919.66
2022-08-05T10:32:52.647Z,97913.50
2022-08-05T10:35:06.365Z,97922.88
2022-08-05T10:37:37.229Z,97908.19
2022-08-05T10:40:44.978Z,97908.72
2022-08-05T10:43:35.861Z,97906.16
2022-08-05T10:46:09.120Z,97912.53
2022-08-05T10:48:58.063Z,97909.50
2022-08-05T10:51:53.227Z,97905.69
2022-08-05T10:54:56.679Z,97900.66
2022-08-05T10:57:31.763Z,97898.53
2022-08-05T11:00:20.452Z,97908.50
2022-08-05T11:03:23.512Z,97901.81
2022-08-05T11:06:15.974Z,97894.03
2022-08-05T11:09:16.399Z,97893.59
2022-08-05T11:11:52.382Z,97880.72
2022-08-05T11:15:01.424Z,97884.19
2022-08-05T11:17:57.369Z,97879.78
2022-08-05T11:20:41.708Z,97873.88
2022-08-05T11:23:33.444Z,97871.59
2022-08-05T11:26:28.671Z,97875.41
2022-08-05T11:29:11.917Z,97878.53
2022-08-05T11:31:57.405Z,97861.75
2022-08-05T11:34:51.168Z,97859.38
2022-08-05T11:38:30.623Z,97863.19
2022-08-05T11:41:34.503Z,97855.91
2022-08-05T11:44:07.261Z,97857.72
2022-08-05T11:46:58.569Z,97840.63
2022-08-05T11:49:39.031Z,97838.03
2022-08-05T11:52:11.338Z,97853.75
2022-08-05T11:54:41.297Z,97835.84
2022-08-05T11:57:39.397Z,97850.28
2022-08-05T11:59:56.815Z,97847.88
2022-08-05T12:02:31.264Z,97842.41
2022-08-05T12:05:06.787Z,97831.25
2022-08-05T12:08:08.585Z,97834.81
2022-08-05T12:10:38.552Z,97828.03
2022-08-05T12:13:28.330Z,97837.06
2022-08-05T12:16:18.836Z,97816.91
2022-08-05T12:18:49.524Z,97823.97
2022-08-05T12:21:29.881Z,97810.13
2022-08-05T12:24:07.086Z,97817.91
2022-08-05T12:26:40.899Z,97818.94
2022-08-05T12:29:22.519Z,97807.13
2022-08-05T12:31:57.046Z,97815.44
2022-08-05T12:34:37.163Z,97806.50
2022-08-05T12:37:17.379Z,97806.22
2022-08-05T12:39:51.784Z,97812.88
2022-08-05T12:42:25.449Z,97797.00
2022-08-05T12:44:52.817Z,97796.31
2022-08-05T12:47:31.169Z,97801.38
2022-08-05T12:50:03.835Z,97798.06
2022-08-05T12:52:39.425Z,97794.69
2022-08-05T12:55:22.903Z,97796.53
2022-08-05T12:58:48.951Z,97785.97
2022-08-05T13:02:00.627Z,97780.63
2022-08-05T13:03:42.902Z,97778.16
2022-08-05T13:06:16.184Z,97790.59
2022-08-05T13:08:52.371Z,97776.50
2022-08-05T13:12:01.829Z,97766.72
2022-08-05T13:14:35.950Z,97774.66
2022-08-05T13:17:10.027Z,97768.03
2022-08-05T13:19:40.411Z,97774.81
2022-08-05T13:22:28.437Z,97759.88
2022-08-05T13:25:05.164Z,97763.81
2022-08-05T13:27:39.063Z,97753.59
2022-08-05T13:30:33.560Z,97757.41
2022-08-05T13:33:01.244Z,97755.06
2022-08-05T13:35:43.225Z,97746.75
2022-08-05T13:38:28.328Z,97751.69
2022-08-05T13:41:00.081Z,97751.16
2022-08-05T13:43:44.496Z,97751.59
2022-08-05T13:46:16.223Z,97742.38
2022-08-05T13:48:58.155Z,97748.63
2022-08-05T13:51:40.085Z,97739.94
2022-08-05T13:54:12.247Z,97737.28
2022-08-05T13:56:45.237Z,97727.16
2022-08-05T13:59:23.990Z,97739.16
2022-08-05T14:01:57.489Z,97729.28
2022-08-05T14:04:51.433Z,97733.19
2022-08-05T14:07:26.439Z,97719.16
2022-08-05T14:10:18.750Z,97704.03
2022-08-05T14:12:48.626Z,97710.91
2022-08-05T14:16:05.045Z,97704.94
2022-08-05T14:18:04.999Z,97703.72
2022-08-05T14:20:32.263Z,97697.31
2022-08-05T14:23:00.286Z,97713.31
2022-08-05T14:25:30.238Z,97706.66
2022-08-05T14:27:58.380Z,97702.84
2022-08-05T14:30:26.437Z,97700.94
2022-08-05T14:32:55.030Z,97689.63
2022-08-05T14:35:24.010Z,97701.66
2022-08-05T14:38:05.309Z,97699.00
2022-08-05T14:40:32.271Z,97682.56
2022-08-05T14:43:01.318Z,97690.38
2022-08-05T14:45:28.660Z,97691.09
2022-08-05T14:48:03.393Z,97686.28
2022-08-05T14:50:38.902Z,97683.72
2022-08-05T14:53:08.458Z,97691.16
2022-08-05T14:55:39.437Z,97694.91
2022-08-05T14:58:11.585Z,97685.81
2022-08-05T15:00:58.262Z,97674.19
2022-08-05T15:03:33.909Z,97687.69
2022-08-05T15:06:15.432Z,97670.66
2022-08-05T15:08:59.293Z,97674.72
2022-08-05T15:11:53.121Z,97675.91
2022-08-05T15:14:35.794Z,97669.69
2022-08-05T15:17:44.678Z,97677.47
2022-08-05T15:19:59.104Z,97659.69
2022-08-05T15:22:26.962Z,97657.25
2022-08-05T15:24:59.538Z,97658.91
2022-08-05T15:27:32.269Z,97663.81
2022-08-05T15:30:04.380Z,97652.81
2022-08-05T15:32:31.920Z,97645.97
2022-08-05T15:34:59.242Z,97643.88
2022-08-05T15:38:08.474Z,97651.06
2022-08-05T15:41:00.503Z,97638.41
2022-08-05T15:43:12.526Z,97634.09
2022-08-05T15:45:46.915Z,97649.06
2022-08-05T15:48:15.689Z,97626.75
2022-08-05T15:50:43.639Z,97632.34
2022-08-05T15:53:14.417Z,97628.34
2022-08-05T15:56:03.072Z,97634.38
2022-08-05T15:58:35.443Z,97634.00
2022-08-05T16:01:16.059Z,97627.88
2022-08-05T16:03:50.497Z,97630.94
2022-08-05T16:06:22.737Z,97646.75
2022-08-05T16:08:53.613Z,97632.09
2022-08-05T16:11:42.493Z,97630.97
2022-08-05T16:14:16.945Z,97631.34
2022-08-05T16:16:46.320Z,97628.91
2022-08-05T16:19:25.278Z,97630.69
2022-08-05T16:22:03.000Z,97625.78
2022-08-05T16:24:39.879Z,97627.56
2022-08-05T16:27:10.025Z,97634.69
2022-08-05T16:29:50.291Z,97632.56
2022-08-05T16:32:28.453Z,97632.56
2022-08-05T16:34:58.847Z,97632.91
2022-08-05T16:38:03.529Z,97630.22
2022-08-05T16:40:28.869Z,97624.09
2022-08-05T16:42:56.820Z,97628.94
2022-08-05T16:46:05.101Z,97632.13
2022-08-05T16:48:12.042Z,97624.88
2022-08-05T16:50:54.594Z,97636.22
2022-08-05T16:53:32.185Z,97635.63
2022-08-05T16:56:00.170Z,97643.47
2022-08-05T16:58:27.441Z,97637.53
2022-08-05T17:00:55.445Z,97628.09
2022-08-05T17:03:22.866Z,97632.22
2022-08-05T17:05:54.265Z,97640.63
2022-08-05T17:08:36.310Z,97635.63
2022-08-05T17:11:17.037Z,97636.44
2022-08-05T17:13:45.458Z,97640.81
2022-08-05T17:16:33.532Z,97639.06
2022-08-05T17:19:02.533Z,97644.22
2022-08-05T17:21:35.497Z,97640.06
2022-08-05T17:24:19.477Z,97639.09
2022-08-05T17:26:58.825Z,97643.56
2022-08-05T17:29:33.647Z,97651.06
2022-08-05T17:32:11.502Z,97645.13
2022-08-05T17:34:44.905Z,97653.88
2022-08-05T17:37:39.587Z,97646.44
2022-08-05T17:40:10.200Z,97648.34
2022-08-05T17:42:41.731Z,97652.50
2022-08-05T17:45:21.901Z,97651.25
2022-08-05T17:47:55.806Z,97647.53
2022-08-05T17:50:30.823Z,97650.16
2022-08-05T17:53:00.549Z,97647.22
2022-08-05T17:55:37.769Z,97648.69
2022-08-05T17:58:12.585Z,97655.78
2022-08-05T18:00:45.385Z,97646.66
2022-08-05T18:03:56.343Z,97642.59
2022-08-05T18:06:12.286Z,97654.38
2022-08-05T18:08:46.043Z,97651.00
2022-08-05T18:11:24.516Z,97646.84
2022-08-05T18:14:03.181Z,97651.28
2022-08-05T18:16:33.300Z,97651.50
2022-08-05T18:19:00.273Z,97654.25
2022-08-05T18:22:06.978Z,97659.25
2022-08-05T18:24:15.891Z,97656.69
2022-08-05T18:26:43.895Z,97659.19
2022-08-05T18:29:11.955Z,97665.22
2022-08-05T18:31:45.284Z,97668.53
2022-08-05T18:34:13.387Z,97670.72
2022-08-05T18:36:43.682Z,97677.66
2022-08-05T18:39:42.205Z,97683.69
2022-08-05T18:42:04.896Z,97689.41
2022-08-05T18:44:48.906Z,97693.72
2022-08-05T18:47:22.764Z,97686.41
2022-08-05T18:50:15.513Z,97693.81
2022-08-05T18:52:50.922Z,97694.84
2022-08-05T18:55:22.301Z,97698.91
2022-08-05T18:57:53.401Z,97702.19
2022-08-05T19:00:29.058Z,97706.56
2022-08-05T19:03:03.927Z,97710.88
2022-08-05T19:06:11.915Z,97705.03
2022-08-05T19:08:22.099Z,97711.31
2022-08-05T19:11:04.428Z,97710.91
2022-08-05T19:13:35.894Z,97705.81
2022-08-05T19:16:25.085Z,97707.94
2022-08-05T19:18:56.692Z,97717.38
2022-08-05T19:21:25.337Z,97719.44
2022-08-05T19:24:05.996Z,97716.81
2022-08-05T19:26:36.835Z,97709.84
2022-08-05T19:29:21.658Z,97713.66
2022-08-05T19:31:51.339Z,97710.88
2022-08-05T19:34:18.888Z,97706.97
2022-08-05T19:36:45.867Z,97704.78
2022-08-05T19:39:17.176Z,97711.97
2022-08-05T19:42:07.709Z,97710.22
2022-08-05T19:44:35.269Z,97703.78
2022-08-05T19:47:04.921Z,97711.41
2022-08-05T19:49:37.548Z,97699.75
2022-08-05T19:52:30.907Z,97702.63
2022-08-05T19:54:52.855Z,97707.16
2022-08-05T19:57:20.055Z,97692.91
2022-08-05T20:00:08.113Z,97701.88
2022-08-05T20:02:39.905Z,97701.53
2022-08-05T20:05:09.477Z,97708.91
2022-08-05T20:07:45.687Z,97710.28
2022-08-05T20:10:19.410Z,97709.81
2022-08-05T20:12:49.952Z,97705.63
2022-08-05T20:15:23.231Z,97712.25
2022-08-05T20:18:32.651Z,97708.47
2022-08-05T20:20:57.812Z,97702.00
2022-08-05T20:23:40.079Z,97707.63
2022-08-05T20:26:17.699Z,97716.66
2022-08-05T20:28:50.881Z,97721.03
2022-08-05T20:31:21.753Z,97719.66
2022-08-05T20:33:51.373Z,97719.44
2022-08-05T20:36:21.136Z,97713.97
2022-08-05T20:38:54.282Z,97721.28
2022-08-05T20:41:44.472Z,97707.78
2022-08-05T20:44:29.373Z,97710.97
2022-08-05T20:47:03.198Z,97715.91
2022-08-05T20:49:37.844Z,97704.88
2022-08-05T20:52:08.055Z,97716.97
2022-08-05T20:54:43.260Z,97708.59
2022-08-05T20:57:42.243Z,97712.28
2022-08-05T21:00:20.869Z,97713.88
2022-08-05T21:03:07.093Z,97716.50
2022-08-05T21:05:53.734Z,97717.34
2022-08-05T21:08:26.850Z,97725.25
2022-08-05T21:11:01.363Z,97727.41
2022-08-05T21:13:48.485Z,97720.84
2022-08-05T21:16:29.543Z,97712.06
2022-08-05T21:19:00.110Z,97711.09
2022-08-05T21:21:39.670Z,97713.50
2022-08-05T21:24:12.856Z,97715.88
2022-08-05T21:26:42.736Z,97719.38
2022-08-05T21:29:16.687Z,97719.00
2022-08-05T21:31:45.122Z,97713.50
2022-08-05T21:34:12.105Z,97726.19
2022-08-05T21:36:39.789Z,97721.19
2022-08-05T21:39:14.268Z,97724.63
2022-08-05T21:41:52.706Z,97721.28
2022-08-05T21:44:32.463Z,97730.47
2022-08-05T21:47:00.367Z,97726.53
2022-08-05T21:49:48.509Z,97724.59
2022-08-05T21:52:27.662Z,97722.53
2022-08-05T21:55:06.410Z,97725.53
2022-08-05T21:57:42.763Z,97719.41
2022-08-05T22:00:11.851Z,97730.81
2022-08-05T22:02:42.967Z,97731.75
2022-08-05T22:05:12.200Z,97728.97
2022-08-05T22:07:59.442Z,97726.34
2022-08-05T22:10:28.396Z,97735.09
2022-08-05T22:12:59.190Z,97735.31
2022-08-05T22:16:02.070Z,97739.63
2022-08-05T22:18:25.954Z,97745.59
2022-08-05T22:20:54.310Z,97742.00
2022-08-05T22:24:00.968Z,97731.16
2022-08-05T22:26:50.499Z,97744.66
2022-08-05T22:29:26.794Z,97738.53
2022-08-05T22:32:03.180Z,97742.25
2022-08-05T22:34:33.412Z,97734.22
2022-08-05T22:37:03.953Z,97735.97
2022-08-05T22:39:34.967Z,97729.63
2022-08-05T22:42:11.631Z,97734.50
2022-08-05T22:44:48.674Z,97737.25
2022-08-05T22:47:29.199Z,97735.38
2022-08-05T22:50:20.932Z,97737.91
2022-08-05T22:52:51.427Z,97735.19
2022-08-05T22:55:21.289Z,97743.31
2022-08-05T22:57:53.813Z,97735.28
2022-08-05T23:00:24.215Z,97737.03
2022-08-05T23:02:53.955Z,97731.16
2022-08-05T23:05:22.476Z,97735.44
2022-08-05T23:07:51.735Z,97738.44
2022-08-05T23:10:23.966Z,97743.31
2022-08-05T23:12:55.128Z,97741.25
2022-08-05T23:15:29.637Z,97737.06
2022-08-05T23:18:03.236Z,97729.88
2022-08-05T23:20:32.748Z,97743.41
2022-08-05T23:23:05.730Z,97744.06
2022-08-05T23:25:53.688Z,97736.91
2022-08-05T23:28:29.395Z,97731.63
2022-08-05T23:31:15.807Z,97737.50
2022-08-05T23:34:06.036Z,97737.97
2022-08-05T23:36:40.054Z,97736.03
2022-08-05T23:39:32.214Z,97733.06
2022-08-05T23:42:08.598Z,97741.31
2022-08-05T23:44:42.621Z,97732.25
2022-08-05T23:47:15.620Z,97726.56
2022-08-05T23:49:45.820Z,97719.63
2022-08-05T23:52:35.957Z,97726.81
2022-08-05T23:55:17.121Z,97732.16
2022-08-05T23:57:44.440Z,97729.00
